createdAt,value
2019-02-19T00:01:49.710Z,86.62
2019-02-19T00:04:21.466Z,86.27
2019-02-19T00:06:53.121Z,85.91
2019-02-19T00:09:24.878Z,85.58
2019-02-19T00:11:56.676Z,85.78
2019-02-19T00:14:28.426Z,86.60
2019-02-19T00:16:59.975Z,85.32
2019-02-19T00:19:31.536Z,84.90
2019-02-19T00:22:03.084Z,84.58
2019-02-19T00:24:34.446Z,85.05
2019-02-19T00:27:05.978Z,86.04
2019-02-19T00:29:38.269Z,85.50
2019-02-19T00:32:09.643Z,85.38
2019-02-19T00:34:41.043Z,85.68
2019-02-19T00:37:14.573Z,85.93
2019-02-19T00:39:46.095Z,86.07
2019-02-19T00:42:17.802Z,86.26
2019-02-19T00:44:49.522Z,86.45
2019-02-19T00:47:21.061Z,86.90
2019-02-19T00:49:53.000Z,87.34
2019-02-19T00:52:25.376Z,87.37
2019-02-19T00:54:56.843Z,87.54
2019-02-19T00:57:28.365Z,87.29
2019-02-19T00:59:59.652Z,87.10
2019-02-19T01:02:30.967Z,87.18
2019-02-19T01:05:03.202Z,86.97
2019-02-19T01:07:34.518Z,89.35
2019-02-19T01:10:06.421Z,90.02
2019-02-19T01:12:38.137Z,89.32
2019-02-19T01:15:10.855Z,87.42
2019-02-19T01:17:42.175Z,87.54
2019-02-19T01:20:13.825Z,87.18
2019-02-19T01:22:45.209Z,87.12
2019-02-19T01:25:17.087Z,87.26
2019-02-19T01:27:48.381Z,87.29
2019-02-19T01:30:19.993Z,87.98
2019-02-19T01:32:51.542Z,88.24
2019-02-19T01:35:22.849Z,88.32
2019-02-19T01:37:54.202Z,87.95
2019-02-19T01:40:25.522Z,88.03
2019-02-19T01:42:56.791Z,87.78
2019-02-19T01:45:33.885Z,87.97
2019-02-19T01:48:01.411Z,88.26
2019-02-19T01:50:32.936Z,88.27
2019-02-19T01:53:04.651Z,88.08
2019-02-19T01:55:37.102Z,87.38
2019-02-19T01:58:08.608Z,87.02
2019-02-19T02:00:40.009Z,87.18
2019-02-19T02:03:11.556Z,87.48
2019-02-19T02:05:43.121Z,87.68
2019-02-19T02:08:14.569Z,87.73
2019-02-19T02:10:45.736Z,88.37
2019-02-19T02:13:17.433Z,89.02
2019-02-19T02:15:48.784Z,89.16
2019-02-19T02:18:19.960Z,88.79
2019-02-19T02:20:51.187Z,88.98
2019-02-19T02:23:22.732Z,89.76
2019-02-19T02:25:54.040Z,89.66
2019-02-19T02:28:25.584Z,89.87
2019-02-19T02:30:56.959Z,90.08
2019-02-19T02:33:28.130Z,89.69
2019-02-19T02:35:59.315Z,89.28
2019-02-19T02:38:30.829Z,89.05
2019-02-19T02:41:02.117Z,88.90
2019-02-19T02:43:34.009Z,89.10
2019-02-19T02:46:05.299Z,89.11
2019-02-19T02:48:36.858Z,88.98
2019-02-19T02:51:08.049Z,88.71
2019-02-19T02:53:39.444Z,88.92
2019-02-19T02:56:10.599Z,89.18
2019-02-19T02:58:41.761Z,89.59
2019-02-19T03:01:13.119Z,89.83
2019-02-19T03:03:44.378Z,89.55
2019-02-19T03:06:24.412Z,89.82
2019-02-19T03:08:55.699Z,89.96
2019-02-19T03:11:27.115Z,89.94
2019-02-19T03:13:58.303Z,90.02
2019-02-19T03:16:29.548Z,89.74
2019-02-19T03:19:01.319Z,89.99
2019-02-19T03:21:32.497Z,89.99
2019-02-19T03:24:03.753Z,89.84
2019-02-19T03:26:34.923Z,89.91
2019-02-19T03:29:07.059Z,89.63
2019-02-19T03:31:38.301Z,89.22
2019-02-19T03:34:09.504Z,88.86
2019-02-19T03:36:40.695Z,88.68
2019-02-19T03:39:12.425Z,88.61
2019-02-19T03:41:44.044Z,89.06
2019-02-19T03:44:15.433Z,89.39
2019-02-19T03:46:46.773Z,89.52
2019-02-19T03:49:18.063Z,89.32
2019-02-19T03:51:49.536Z,89.23
2019-02-19T03:54:21.159Z,89.75
2019-02-19T03:56:52.559Z,88.88
2019-02-19T03:59:23.942Z,88.65
2019-02-19T04:01:55.313Z,88.98
2019-02-19T04:04:26.730Z,88.95
2019-02-19T04:06:59.091Z,89.04
2019-02-19T04:09:30.754Z,89.18
2019-02-19T04:12:02.117Z,89.37
2019-02-19T04:14:33.258Z,89.40
2019-02-19T04:17:04.837Z,89.19
2019-02-19T04:19:35.992Z,89.55
2019-02-19T04:22:07.715Z,89.64
2019-02-19T04:24:39.519Z,89.66
2019-02-19T04:27:10.685Z,90.14
2019-02-19T04:29:42.272Z,90.42
2019-02-19T04:32:13.555Z,90.47
2019-02-19T04:34:44.731Z,90.60
2019-02-19T04:37:16.155Z,90.68
2019-02-19T04:39:47.407Z,90.62
2019-02-19T04:42:18.584Z,90.53
2019-02-19T04:44:49.768Z,90.93
2019-02-19T04:47:21.013Z,90.97
2019-02-19T04:49:52.194Z,91.13
2019-02-19T04:52:23.374Z,91.22
2019-02-19T04:54:54.528Z,91.22
2019-02-19T04:57:25.960Z,91.38
2019-02-19T04:59:57.143Z,91.32
2019-02-19T05:02:28.353Z,91.39
2019-02-19T05:04:59.497Z,91.23
2019-02-19T05:07:31.231Z,91.65
2019-02-19T05:10:02.543Z,91.92
2019-02-19T05:12:34.121Z,91.83
2019-02-19T05:15:06.153Z,92.20
2019-02-19T05:17:37.690Z,91.81
2019-02-19T05:20:09.389Z,91.04
2019-02-19T05:22:40.538Z,91.16
2019-02-19T05:25:11.785Z,91.74
2019-02-19T05:27:43.162Z,92.01
2019-02-19T05:30:14.634Z,91.92
2019-02-19T05:32:45.773Z,91.75
2019-02-19T05:35:17.019Z,91.52
2019-02-19T05:37:48.258Z,91.33
2019-02-19T05:40:19.877Z,91.50
2019-02-19T05:42:51.161Z,91.63
2019-02-19T05:45:22.354Z,91.60
2019-02-19T05:47:53.537Z,91.58
2019-02-19T05:50:24.739Z,90.66
2019-02-19T05:52:55.994Z,90.44
2019-02-19T05:55:27.241Z,90.94
2019-02-19T05:57:58.397Z,91.10
2019-02-19T06:00:29.924Z,91.22
2019-02-19T06:03:01.115Z,91.40
2019-02-19T06:05:32.292Z,91.26
2019-02-19T06:08:03.461Z,91.04
2019-02-19T06:10:34.644Z,90.82
2019-02-19T06:13:06.305Z,91.02
2019-02-19T06:15:37.650Z,91.36
2019-02-19T06:18:08.872Z,91.48
2019-02-19T06:20:40.077Z,91.79
2019-02-19T06:23:11.569Z,91.79
2019-02-19T06:25:43.152Z,92.13
2019-02-19T06:28:14.653Z,92.74
2019-02-19T06:30:46.318Z,92.61
2019-02-19T06:33:17.451Z,92.47
2019-02-19T06:35:48.660Z,92.50
2019-02-19T06:38:20.087Z,92.34
2019-02-19T06:40:51.776Z,92.40
2019-02-19T06:43:22.987Z,92.26
2019-02-19T06:45:54.205Z,92.04
2019-02-19T06:48:25.340Z,91.95
2019-02-19T06:50:56.554Z,91.70
2019-02-19T06:53:28.791Z,92.02
2019-02-19T06:55:59.973Z,91.83
2019-02-19T06:58:31.285Z,91.77
2019-02-19T07:01:03.806Z,91.66
2019-02-19T07:03:45.259Z,90.92
2019-02-19T07:06:16.949Z,88.89
2019-02-19T07:08:48.369Z,88.13
2019-02-19T07:11:20.942Z,87.80
2019-02-19T07:13:52.474Z,87.05
2019-02-19T07:16:23.847Z,85.20
2019-02-19T07:18:55.220Z,83.02
2019-02-19T07:21:26.659Z,82.38
2019-02-19T07:24:04.460Z,80.42
2019-02-19T07:26:31.257Z,78.82
2019-02-19T07:29:02.597Z,79.34
2019-02-19T07:31:33.954Z,76.90
2019-02-19T07:34:05.409Z,75.71
2019-02-19T07:36:36.886Z,74.00
2019-02-19T07:39:08.285Z,74.84
2019-02-19T07:41:39.613Z,75.25
2019-02-19T07:44:11.017Z,75.58
2019-02-19T07:46:43.003Z,76.10
2019-02-19T07:49:14.255Z,76.77
2019-02-19T07:51:45.576Z,76.27
2019-02-19T07:54:17.035Z,75.89
2019-02-19T07:56:48.549Z,74.51
2019-02-19T07:59:20.347Z,71.05
2019-02-19T08:01:51.842Z,69.13
2019-02-19T08:04:23.249Z,68.87
2019-02-19T08:06:54.693Z,66.82
2019-02-19T08:09:26.019Z,65.27
2019-02-19T08:11:57.395Z,66.37
2019-02-19T08:14:28.682Z,65.30
2019-02-19T08:17:00.210Z,65.19
2019-02-19T08:19:31.763Z,63.11
2019-02-19T08:22:04.826Z,62.32
2019-02-19T08:24:36.147Z,63.46
2019-02-19T08:27:07.745Z,59.90
2019-02-19T08:29:39.058Z,57.54
2019-02-19T08:32:10.532Z,57.47
2019-02-19T08:34:41.756Z,57.77
2019-02-19T08:37:13.254Z,58.34
2019-02-19T08:39:44.622Z,58.64
2019-02-19T08:42:16.017Z,58.55
2019-02-19T08:44:47.554Z,59.28
2019-02-19T08:47:18.948Z,57.87
2019-02-19T08:49:50.326Z,57.26
2019-02-19T08:52:21.828Z,57.11
2019-02-19T08:54:53.445Z,57.13
2019-02-19T08:57:25.274Z,57.20
2019-02-19T08:59:56.889Z,54.64
2019-02-19T09:02:28.100Z,53.61
2019-02-19T09:04:59.768Z,54.43
2019-02-19T09:07:31.448Z,57.01
2019-02-19T09:10:04.525Z,60.12
2019-02-19T09:12:35.840Z,61.05
2019-02-19T09:15:11.012Z,58.08
2019-02-19T09:17:42.109Z,57.22
2019-02-19T09:20:13.945Z,56.21
2019-02-19T09:22:45.661Z,54.67
2019-02-19T09:25:17.354Z,54.29
2019-02-19T09:27:48.741Z,53.83
2019-02-19T09:30:20.100Z,51.65
2019-02-19T09:32:51.620Z,52.05
2019-02-19T09:35:23.299Z,53.96
2019-02-19T09:37:54.609Z,53.23
2019-02-19T09:40:25.946Z,51.91
2019-02-19T09:42:59.652Z,52.29
2019-02-19T09:45:31.025Z,55.40
2019-02-19T09:48:02.348Z,54.69
2019-02-19T09:50:34.554Z,54.42
2019-02-19T09:53:06.698Z,53.27
2019-02-19T09:55:38.343Z,53.96
2019-02-19T09:58:09.589Z,57.32
2019-02-19T10:00:41.032Z,56.41
2019-02-19T10:03:12.870Z,55.06
2019-02-19T10:05:44.275Z,58.03
2019-02-19T10:08:15.541Z,58.62
2019-02-19T10:10:47.251Z,58.58
2019-02-19T10:13:18.603Z,58.38
2019-02-19T10:15:50.193Z,57.47
2019-02-19T10:18:21.684Z,56.16
2019-02-19T10:20:52.974Z,56.39
2019-02-19T10:23:24.375Z,55.80
2019-02-19T10:25:56.121Z,55.87
2019-02-19T10:28:27.493Z,55.51
2019-02-19T10:30:59.373Z,54.98
2019-02-19T10:33:30.904Z,53.91
2019-02-19T10:36:02.242Z,54.21
2019-02-19T10:38:33.673Z,53.19
2019-02-19T10:41:05.331Z,53.11
2019-02-19T10:43:37.164Z,54.81
2019-02-19T10:46:08.957Z,55.55
2019-02-19T10:48:40.363Z,53.86
2019-02-19T10:51:11.882Z,55.17
2019-02-19T10:53:43.210Z,53.79
2019-02-19T10:56:14.835Z,53.91
2019-02-19T10:58:46.227Z,53.53
2019-02-19T11:01:17.652Z,55.17
2019-02-19T11:03:50.360Z,57.65
2019-02-19T11:06:21.760Z,58.90
2019-02-19T11:08:53.797Z,57.34
2019-02-19T11:11:25.287Z,56.04
2019-02-19T11:13:56.640Z,56.04
2019-02-19T11:16:28.026Z,55.51
2019-02-19T13:02:21.167Z,49.67
2019-02-19T13:04:52.343Z,47.76
2019-02-19T13:07:23.767Z,49.17
2019-02-19T13:09:55.278Z,52.25
2019-02-19T13:12:26.626Z,53.98
2019-02-19T13:14:58.066Z,53.88
2019-02-19T13:17:29.645Z,54.34
2019-02-19T13:20:00.831Z,55.17
2019-02-19T13:22:32.159Z,55.72
2019-02-19T13:25:03.789Z,55.54
2019-02-19T13:27:35.182Z,55.62
2019-02-19T13:30:10.502Z,55.85
2019-02-19T13:32:42.259Z,55.00
2019-02-19T13:35:14.090Z,53.56
2019-02-19T13:37:45.286Z,52.24
2019-02-19T13:40:16.639Z,51.20
2019-02-19T13:42:48.078Z,51.41
2019-02-19T13:45:19.679Z,52.17
2019-02-19T13:47:51.079Z,52.78
2019-02-19T13:50:22.535Z,54.05
2019-02-19T13:53:07.636Z,54.94
2019-02-19T13:55:41.876Z,55.21
2019-02-19T13:58:13.081Z,55.62
2019-02-19T14:00:47.190Z,55.54
2019-02-19T14:03:18.914Z,55.42
2019-02-19T14:05:50.405Z,56.14
2019-02-19T14:08:22.381Z,56.09
2019-02-19T14:10:53.876Z,56.06
2019-02-19T14:13:25.096Z,55.71
2019-02-19T14:16:16.851Z,52.66
2019-02-19T14:18:56.361Z,50.82
2019-02-19T14:21:45.597Z,48.79
2019-02-19T14:24:54.018Z,51.54
2019-02-19T14:27:43.933Z,53.24
2019-02-19T14:30:34.119Z,53.20
2019-02-19T14:33:21.875Z,54.08
2019-02-19T14:36:20.326Z,54.47
2019-02-19T14:38:59.589Z,55.43
2019-02-19T14:41:49.554Z,55.71
2019-02-19T14:44:38.644Z,55.20
2019-02-19T14:47:35.010Z,55.17
2019-02-19T14:50:26.463Z,54.15
2019-02-19T14:53:31.866Z,53.78
2019-02-19T14:56:29.986Z,54.85
2019-02-19T14:59:14.057Z,55.57
2019-02-19T15:02:04.250Z,56.48
2019-02-19T15:04:53.169Z,55.79
2019-02-19T15:07:31.694Z,55.29
2019-02-19T15:10:19.746Z,54.36
2019-02-19T15:13:18.704Z,54.87
2019-02-19T15:16:09.299Z,55.65
2019-02-19T15:18:58.061Z,56.21
2019-02-19T15:21:45.094Z,55.55
2019-02-19T15:24:33.772Z,55.93
2019-02-19T15:27:17.698Z,56.01
2019-02-19T15:30:26.005Z,56.69
2019-02-19T15:33:16.104Z,57.35
2019-02-19T15:36:16.527Z,57.12
2019-02-19T15:38:54.607Z,57.53
2019-02-19T15:41:48.312Z,58.18
2019-02-19T15:44:44.431Z,58.78
2019-02-19T15:47:31.351Z,59.44
2019-02-19T15:50:24.747Z,59.27
2019-02-19T15:53:13.784Z,59.54
2019-02-19T15:56:07.133Z,59.77
2019-02-19T15:58:56.174Z,59.96
2019-02-19T16:01:44.159Z,60.44
2019-02-19T16:04:23.608Z,61.21
2019-02-19T16:07:01.262Z,62.05
2019-02-19T16:09:42.842Z,60.89
2019-02-19T16:12:36.060Z,60.74
2019-02-19T16:15:33.192Z,60.70
2019-02-19T16:18:12.726Z,61.21
2019-02-19T16:21:02.845Z,61.50
2019-02-19T16:23:46.830Z,61.80
2019-02-19T16:26:31.698Z,61.94
2019-02-19T16:29:28.203Z,62.30
2019-02-19T16:32:24.329Z,63.54
2019-02-19T16:35:05.155Z,64.23
2019-02-19T16:37:53.951Z,66.13
2019-02-19T16:40:32.590Z,66.44
2019-02-19T16:43:12.148Z,67.49
2019-02-19T16:46:04.340Z,69.57
2019-02-19T16:48:47.095Z,70.74
2019-02-19T16:51:49.507Z,72.48
2019-02-19T16:54:29.110Z,73.54
2019-02-19T16:57:28.471Z,74.21
2019-02-19T17:00:13.636Z,74.96
2019-02-19T17:03:04.141Z,75.67
2019-02-19T17:05:49.562Z,75.56
2019-02-19T17:08:38.171Z,75.62
2019-02-19T17:11:34.252Z,75.64
2019-02-19T17:14:32.748Z,76.86
2019-02-19T17:17:13.383Z,76.68
2019-02-19T17:20:17.588Z,76.81
2019-02-19T17:22:57.949Z,76.99
2019-02-19T17:25:38.882Z,76.91
2019-02-19T17:28:47.850Z,76.06
2019-02-19T17:31:36.716Z,77.01
2019-02-19T17:34:25.737Z,75.48
2019-02-19T17:37:14.996Z,75.40
2019-02-19T17:40:06.569Z,74.09
2019-02-19T17:42:52.685Z,73.27
2019-02-19T17:45:45.612Z,73.42
2019-02-19T17:48:53.990Z,73.36
2019-02-19T17:51:46.827Z,73.03
2019-02-19T17:54:35.678Z,73.28
2019-02-19T17:57:27.145Z,73.45
2019-02-19T18:00:17.199Z,74.19
2019-02-19T18:03:16.755Z,74.82
2019-02-19T18:06:08.896Z,74.08
2019-02-19T18:09:08.426Z,74.76
2019-02-19T18:12:07.754Z,75.42
2019-02-19T18:14:51.527Z,75.35
2019-02-19T18:17:38.573Z,75.42
2019-02-19T18:20:09.940Z,76.11
2019-02-19T18:22:41.254Z,75.85
2019-02-19T18:25:13.517Z,76.39
2019-02-19T18:27:45.001Z,76.52
2019-02-19T18:30:16.275Z,76.70
2019-02-19T18:32:47.916Z,76.19
2019-02-19T18:35:19.159Z,76.77
2019-02-19T18:37:50.359Z,76.86
2019-02-19T18:40:21.787Z,76.34
2019-02-19T18:42:53.321Z,77.12
2019-02-19T18:45:24.444Z,75.47
2019-02-19T18:47:55.957Z,76.31
2019-02-19T18:50:27.099Z,75.68
2019-02-19T18:52:58.306Z,76.48
2019-02-19T18:55:29.807Z,75.18
2019-02-19T18:58:01.067Z,75.79
2019-02-19T19:00:32.416Z,75.32
2019-02-19T19:03:06.800Z,74.64
2019-02-19T19:05:38.432Z,75.89
2019-02-19T19:08:09.973Z,75.01
2019-02-19T19:10:41.721Z,75.10
2019-02-19T19:13:13.375Z,75.45
2019-02-19T19:16:01.366Z,76.05
2019-02-19T19:18:32.499Z,76.45
2019-02-19T19:21:07.952Z,75.94
2019-02-19T19:23:41.487Z,76.73
2019-02-19T19:26:12.811Z,76.74
2019-02-19T19:28:44.185Z,76.63
2019-02-19T19:31:18.495Z,77.12
2019-02-19T19:33:51.438Z,77.54
2019-02-19T19:36:26.741Z,78.21
2019-02-19T19:39:04.742Z,78.40
2019-02-19T19:41:41.184Z,78.82
2019-02-19T19:44:13.232Z,78.98
2019-02-19T19:46:44.588Z,79.64
2019-02-19T19:49:15.923Z,80.30
2019-02-19T19:51:47.315Z,80.78
2019-02-19T19:54:18.678Z,81.30
2019-02-19T19:56:50.614Z,80.06
2019-02-19T19:59:22.333Z,79.07
2019-02-19T20:01:53.640Z,77.90
2019-02-19T20:04:25.011Z,77.39
2019-02-19T20:06:56.473Z,77.23
2019-02-19T20:09:27.843Z,76.99
2019-02-19T20:12:01.188Z,76.68
2019-02-19T20:14:38.942Z,77.13
2019-02-19T20:17:15.533Z,76.80
2019-02-19T20:19:44.140Z,76.89
2019-02-19T20:22:15.360Z,77.00
2019-02-19T20:24:46.729Z,77.29
2019-02-19T20:27:18.682Z,77.39
2019-02-19T20:29:50.029Z,76.43
2019-02-19T20:32:21.604Z,77.62
2019-02-19T20:34:52.939Z,78.13
2019-02-19T20:37:24.443Z,78.52
2019-02-19T20:39:55.718Z,79.07
2019-02-19T20:42:27.263Z,80.07
2019-02-19T20:44:59.267Z,80.80
2019-02-19T20:47:31.922Z,81.38
2019-02-19T20:50:03.732Z,82.09
2019-02-19T20:52:35.110Z,82.65
2019-02-19T20:55:07.429Z,82.98
2019-02-19T20:57:38.967Z,82.90
2019-02-19T21:00:15.109Z,83.01
2019-02-19T21:02:48.415Z,83.63
2019-02-19T21:05:20.114Z,83.60
2019-02-19T21:07:51.749Z,83.83
2019-02-19T21:10:24.316Z,83.71
2019-02-19T21:12:55.830Z,82.89
2019-02-19T21:15:27.312Z,83.79
2019-02-19T21:17:58.906Z,84.25
2019-02-19T21:20:31.375Z,84.38
2019-02-19T21:23:06.757Z,84.22
2019-02-19T21:25:38.278Z,85.16
2019-02-19T21:28:10.629Z,85.35
2019-02-19T21:30:42.139Z,85.06
2019-02-19T21:33:14.281Z,85.24
2019-02-19T21:35:46.350Z,85.20
2019-02-19T21:38:18.989Z,85.08
2019-02-19T21:40:50.653Z,84.71
2019-02-19T21:43:22.554Z,83.45
2019-02-19T21:45:54.284Z,84.72
2019-02-19T21:48:26.190Z,86.31
2019-02-19T21:50:57.893Z,83.86
2019-02-19T21:53:29.384Z,83.71
2019-02-19T21:56:01.712Z,84.11
2019-02-19T21:58:33.438Z,85.61
2019-02-19T22:01:05.363Z,86.49
2019-02-19T22:03:39.411Z,87.51
2019-02-19T22:06:11.269Z,87.98
2019-02-19T22:08:42.681Z,88.04
2019-02-19T22:11:15.647Z,87.73
2019-02-19T22:13:47.822Z,88.44
2019-02-19T22:16:19.860Z,88.25
2019-02-19T22:18:55.614Z,87.74
2019-02-19T22:21:34.246Z,88.20
2019-02-19T22:24:06.694Z,88.11
2019-02-19T22:26:38.586Z,88.68
2019-02-19T22:29:10.275Z,88.52
2019-02-19T22:31:41.671Z,88.05
2019-02-19T22:34:12.950Z,86.35
2019-02-19T22:36:44.422Z,84.91
2019-02-19T22:39:15.702Z,85.11
2019-02-19T22:41:47.505Z,85.84
2019-02-19T22:44:19.114Z,86.45
2019-02-19T22:46:50.839Z,86.65
2019-02-19T22:49:22.206Z,87.00
2019-02-19T22:51:53.836Z,87.09
2019-02-19T22:54:42.848Z,87.22
2019-02-19T22:57:14.324Z,87.77
2019-02-19T22:59:45.625Z,88.39
2019-02-19T23:02:25.633Z,88.13
2019-02-19T23:04:57.150Z,88.07
2019-02-19T23:07:28.705Z,88.01
2019-02-19T23:10:00.212Z,88.34
2019-02-19T23:12:31.586Z,88.20
2019-02-19T23:15:02.938Z,87.94
2019-02-19T23:17:35.595Z,87.82
2019-02-19T23:20:07.236Z,88.70
2019-02-19T23:22:38.891Z,88.92
2019-02-19T23:25:10.772Z,88.71
2019-02-19T23:27:42.269Z,88.77
2019-02-19T23:30:13.955Z,88.92
2019-02-19T23:32:46.123Z,89.33
2019-02-19T23:35:24.173Z,89.32
2019-02-19T23:37:55.547Z,91.30
2019-02-19T23:40:27.363Z,91.40
2019-02-19T23:42:59.134Z,91.59
2019-02-19T23:45:30.828Z,91.46
2019-02-19T23:48:02.254Z,91.15
2019-02-19T23:50:33.741Z,91.12
2019-02-19T23:53:05.519Z,90.46
2019-02-19T23:55:36.951Z,89.97
2019-02-19T23:58:08.401Z,89.20
